CheckWX is a tool to help pilots better visualize weather data.  It is not intended as a substitute for an official pre-flight weather briefing.

08:38:07 UTC

PHTO METAR
Hilo International Airport
Hilo, Hawaii, USA
Current

45 mins ago

PHTO 170753Z VRB04KT 10SM OVC045 26/20 A3003 RMK AO2 SLP166 T02560200
Observed
Jul-17 @ 07:53 UTC
Wind
  • Variable at 4 KTS
Visibility
10 SM
Flight Rules
VFR
Cloud Levels
  • Overcast at 4,500' AGL
Temperature
26°C / 79°F
Dewpoint
20°C / 68°F
Humidity
70%
Altimeter
30.03" Hg
Pressure
1016.92 hPa
Previous

2 hours ago

PHTO 170653Z 10008KT 10SM OVC046 26/20 A3001 RMK AO2 SLP160 T02610200
Observed
Jul-17 @ 06:53 UTC
Wind
  • 100° at 8 KTS
Visibility
10 SM
Flight Rules
VFR
Cloud Levels
  • Overcast at 4,600' AGL
Temperature
26°C / 79°F
Dewpoint
20°C / 68°F
Humidity
70%
Altimeter
30.01" Hg
Pressure
1016.22 hPa
Previous

3 hours ago

PHTO 170553Z 10005KT 10SM OVC047 26/20 A2999 RMK AO2 SLP155 60000 T02610200 10300 20261 53015
Observed
Jul-17 @ 05:53 UTC
Wind
  • 100° at 5 KTS
Visibility
10 SM
Flight Rules
VFR
Cloud Levels
  • Overcast at 4,700' AGL
Temperature
26°C / 79°F
Dewpoint
20°C / 68°F
Humidity
70%
Altimeter
29.99" Hg
Pressure
1015.62 hPa